Terminal Aerodrome Forecast
Issued by NWS

Home | Current Version | Previous Version | Text Only | Print | Product List | Glossary On
Versions: 1 2 3 4 5 6 7 8 9 10 11 12 13 14 15 16 17 18 19 20 21 22 23 24 25
000
FTUS42 KGSP 041747
TAFGMU
TAF
KGMU 041747Z 0418/0518 23013KT P6SM OVC006
     FM041900 23013G23KT P6SM BKN011 OVC040
     FM042000 22011G22KT P6SM SCT020 BKN045
     FM050900 24007KT 2SM -RA BR OVC012
     FM051600 34005KT 5SM -RA BR OVC008=

USA.gov is the U.S. government's official web portal to all federal, state and local government web resources and services.